createdAt,value
2023-03-16T00:00:09.028Z,15.90
2023-03-16T00:02:47.712Z,15.70
2023-03-16T00:05:35.006Z,17.40
2023-03-16T00:08:11.243Z,16.20
2023-03-16T00:10:51.786Z,18.42
2023-03-16T00:16:04.010Z,15.63
2023-03-16T00:19:07.302Z,14.00
2023-03-16T00:21:35.680Z,16.45
2023-03-16T00:24:09.582Z,16.67
2023-03-16T00:26:49.304Z,18.67
2023-03-16T00:29:29.216Z,14.65
2023-03-16T00:32:17.538Z,17.75
2023-03-16T00:34:49.725Z,14.38
2023-03-16T00:37:21.941Z,18.83
2023-03-16T00:39:50.230Z,13.45
2023-03-16T00:42:21.833Z,15.70
2023-03-16T00:44:57.827Z,10.98
2023-03-16T00:47:26.918Z,13.80
2023-03-16T00:49:56.929Z,14.87
2023-03-16T00:52:26.440Z,16.50
2023-03-16T00:54:54.483Z,16.88
2023-03-16T00:57:33.147Z,13.33
2023-03-16T01:00:04.885Z,13.80
2023-03-16T01:02:36.145Z,12.07
2023-03-16T01:08:03.266Z,13.60
2023-03-16T01:13:21.848Z,13.43
2023-03-16T01:15:55.270Z,15.23
2023-03-16T01:18:37.701Z,16.02
2023-03-16T01:21:07.622Z,15.10
2023-03-16T01:23:51.963Z,12.10
2023-03-16T01:26:25.579Z,13.65
2023-03-16T01:28:56.573Z,15.03
2023-03-16T01:31:33.284Z,11.30
2023-03-16T01:35:00.924Z,11.57
2023-03-16T01:37:29.280Z,14.35
2023-03-16T01:42:54.633Z,11.80
2023-03-16T01:45:51.859Z,12.80
2023-03-16T01:48:24.972Z,14.50
2023-03-16T01:50:59.336Z,12.23
2023-03-16T01:53:34.325Z,11.05
2023-03-16T01:56:06.788Z,11.02
2023-03-16T01:58:39.507Z,16.10
2023-03-16T02:01:10.160Z,11.27
2023-03-16T02:03:38.820Z,9.93
2023-03-16T02:06:17.309Z,12.73
2023-03-16T02:08:48.169Z,10.55
2023-03-16T02:11:18.589Z,11.52
2023-03-16T02:13:49.318Z,11.65
2023-03-16T02:16:19.913Z,13.93
2023-03-16T02:18:54.530Z,11.00
2023-03-16T02:21:42.830Z,13.75
2023-03-16T02:24:13.660Z,9.00
2023-03-16T02:27:04.154Z,10.45
2023-03-16T02:29:59.569Z,14.02
2023-03-16T02:35:28.375Z,10.35
2023-03-16T02:38:10.483Z,11.80
2023-03-16T02:40:45.615Z,13.73
2023-03-16T02:43:18.664Z,13.38
2023-03-16T02:45:49.988Z,11.57
2023-03-16T02:48:25.172Z,17.77
2023-03-16T02:50:55.450Z,7.95
2023-03-16T02:53:28.421Z,13.45
2023-03-16T02:56:10.142Z,12.80
2023-03-16T02:58:45.106Z,9.48
2023-03-16T03:03:57.157Z,13.95
2023-03-16T03:06:32.639Z,18.95
2023-03-16T03:09:02.567Z,11.82
2023-03-16T03:11:30.497Z,14.10
2023-03-16T03:14:10.618Z,11.55
2023-03-16T03:16:45.195Z,10.45
2023-03-16T03:19:18.054Z,10.63
2023-03-16T03:21:55.915Z,10.13
2023-03-16T03:24:40.618Z,14.35
2023-03-16T03:27:19.559Z,13.82
2023-03-16T03:29:50.552Z,13.40
2023-03-16T03:32:30.789Z,13.32
2023-03-16T03:34:58.862Z,13.30
2023-03-16T03:37:26.802Z,11.15
2023-03-16T03:40:00.955Z,11.80
2023-03-16T03:42:30.402Z,12.13
2023-03-16T03:45:03.189Z,15.18
2023-03-16T03:47:38.579Z,12.35
2023-03-16T03:52:41.193Z,12.95
2023-03-16T03:55:14.225Z,10.82
2023-03-16T03:57:45.954Z,11.95
2023-03-16T04:00:21.812Z,10.25
2023-03-16T04:02:50.195Z,11.70
2023-03-16T04:05:29.794Z,13.57
2023-03-16T04:07:59.272Z,11.40
2023-03-16T04:10:31.988Z,12.27
2023-03-16T04:13:06.014Z,13.27
2023-03-16T04:15:35.279Z,15.07
2023-03-16T04:21:02.961Z,19.05
2023-03-16T04:23:51.303Z,14.20
2023-03-16T04:26:20.858Z,13.45
2023-03-16T04:28:57.188Z,13.95
2023-03-16T04:34:29.125Z,14.27
2023-03-16T04:40:16.200Z,12.68
2023-03-16T04:42:50.624Z,20.00
2023-03-16T04:45:44.169Z,15.73
2023-03-16T04:48:21.341Z,19.50
2023-03-16T04:50:52.881Z,15.65
2023-03-16T04:59:03.728Z,15.10
2023-03-16T05:01:38.972Z,13.43
2023-03-16T05:04:28.384Z,13.98
2023-03-16T05:06:57.412Z,17.73
2023-03-16T05:12:26.244Z,17.60
2023-03-16T05:20:45.842Z,13.88
2023-03-16T05:23:20.213Z,13.93
2023-03-16T05:26:00.399Z,16.25
2023-03-16T05:28:28.477Z,17.50
2023-03-16T05:30:58.612Z,11.68
2023-03-16T05:33:31.918Z,14.68
2023-03-16T05:36:07.214Z,15.82
2023-03-16T05:38:42.156Z,17.52
2023-03-16T05:41:22.794Z,12.98
2023-03-16T05:43:55.820Z,18.50
2023-03-16T05:46:56.044Z,12.70
2023-03-16T05:50:08.185Z,14.07
2023-03-16T05:56:06.296Z,18.00
2023-03-16T05:59:17.106Z,16.55
2023-03-16T06:01:57.070Z,17.75
2023-03-16T06:04:32.083Z,16.05
2023-03-16T06:07:04.462Z,15.27
2023-03-16T06:09:58.750Z,15.50
2023-03-16T06:12:31.331Z,19.08
2023-03-16T06:15:17.480Z,16.30
2023-03-16T06:20:37.305Z,15.77
2023-03-16T06:23:10.145Z,17.23
2023-03-16T07:44:37.400Z,12.87
2023-03-16T08:08:47.336Z,13.03
2023-03-16T08:20:34.452Z,16.63
2023-03-16T08:26:09.544Z,13.57
2023-03-16T08:45:01.301Z,15.77
2023-03-16T08:56:16.916Z,13.07
2023-03-16T09:02:41.186Z,14.63
2023-03-16T10:03:31.570Z,9.83
2023-03-16T10:06:47.295Z,9.57
2023-03-16T10:13:35.152Z,7.23
2023-03-16T10:22:48.540Z,8.20
2023-03-16T10:30:15.729Z,7.25
2023-03-16T10:36:17.381Z,6.60
2023-03-16T10:39:15.083Z,9.67
2023-03-16T10:42:53.473Z,5.67
2023-03-16T10:46:22.378Z,10.17
2023-03-16T10:59:07.435Z,5.63
2023-03-16T11:01:47.367Z,7.17
2023-03-16T11:07:55.222Z,5.63
2023-03-16T11:11:20.136Z,8.33
2023-03-16T11:14:25.732Z,6.07
2023-03-16T11:17:34.638Z,8.93
2023-03-16T11:43:32.021Z,6.03
2023-03-16T12:49:57.333Z,3.30
2023-03-16T13:24:26.640Z,7.47
2023-03-16T13:40:45.137Z,6.83
2023-03-16T14:07:01.408Z,5.80
2023-03-16T14:14:49.409Z,8.68
2023-03-16T14:54:16.852Z,5.13
2023-03-16T15:01:22.050Z,5.65
2023-03-16T15:11:07.796Z,5.63
2023-03-16T15:14:31.343Z,5.37
2023-03-16T15:21:07.692Z,3.90
2023-03-16T16:22:27.304Z,6.67
2023-03-16T16:25:27.986Z,7.33
2023-03-16T16:28:48.254Z,8.57
2023-03-16T16:31:35.544Z,6.50
2023-03-16T16:36:53.581Z,13.17
2023-03-16T16:39:34.750Z,8.60
2023-03-16T17:00:02.370Z,6.87
2023-03-16T17:03:15.870Z,7.53
2023-03-16T17:05:52.416Z,5.67
2023-03-16T17:14:42.947Z,6.83
2023-03-16T17:17:29.266Z,8.27
2023-03-16T17:20:31.369Z,10.10
2023-03-16T17:23:20.733Z,8.20
2023-03-16T17:25:55.337Z,9.17
2023-03-16T17:28:48.909Z,9.85
2023-03-16T17:31:34.249Z,7.43
2023-03-16T17:34:11.281Z,7.10
2023-03-16T17:37:01.146Z,9.33
2023-03-16T17:40:08.916Z,9.63
2023-03-16T17:43:05.595Z,9.03
2023-03-16T17:52:09.006Z,46.63
2023-03-16T17:55:36.191Z,15.00
2023-03-16T17:58:16.622Z,8.73
2023-03-16T18:01:13.948Z,12.40
2023-03-16T18:25:46.957Z,25.23
2023-03-16T18:28:34.065Z,24.53
2023-03-16T18:31:35.308Z,25.97
2023-03-16T18:34:46.038Z,27.33
2023-03-16T19:27:47.424Z,23.98
2023-03-16T19:30:52.286Z,23.50
2023-03-16T21:01:29.934Z,96.30
2023-03-16T21:11:21.924Z,85.90
2023-03-16T21:15:03.144Z,79.07
2023-03-16T21:24:45.444Z,82.93
2023-03-16T21:34:39.554Z,109.05
2023-03-16T21:38:08.168Z,121.95
2023-03-16T21:41:45.962Z,113.32
2023-03-16T21:51:16.607Z,107.15
2023-03-16T21:57:21.121Z,68.20
2023-03-16T22:00:10.779Z,91.43
2023-03-16T22:03:21.127Z,86.35
2023-03-16T22:13:56.186Z,84.50
2023-03-16T22:21:09.541Z,75.40
2023-03-16T22:28:24.426Z,81.78
2023-03-16T22:39:35.279Z,70.43
2023-03-16T22:49:18.450Z,75.60
2023-03-16T22:53:26.461Z,78.38
2023-03-16T23:01:14.280Z,83.55
2023-03-16T23:04:19.626Z,77.97
2023-03-16T23:17:24.462Z,81.25
2023-03-16T23:20:56.432Z,77.10
2023-03-16T23:37:12.065Z,95.65
2023-03-16T23:46:37.900Z,114.50
2023-03-16T23:51:55.970Z,107.10
2023-03-16T23:54:55.064Z,109.65
2023-03-16T23:58:16.200Z,97.13
